sensor_id;sensor_type;location;lat;lon;timestamp;P1;durP1;ratioP1;P2;durP2;ratioP2
16101;SDS011;56411;52.964;10.540;2023-05-10T00:01:12;10.63;;;4.57;;
16101;SDS011;56411;52.964;10.540;2023-05-10T00:03:40;10.20;;;4.73;;
16101;SDS011;56411;52.964;10.540;2023-05-10T00:06:07;9.07;;;4.67;;
16101;SDS011;56411;52.964;10.540;2023-05-10T00:08:34;8.90;;;4.70;;
16101;SDS011;56411;52.964;10.540;2023-05-10T00:11:01;10.57;;;4.50;;
16101;SDS011;56411;52.964;10.540;2023-05-10T00:13:28;11.80;;;5.10;;
16101;SDS011;56411;52.964;10.540;2023-05-10T00:15:55;10.10;;;4.67;;
16101;SDS011;56411;52.964;10.540;2023-05-10T00:18:22;10.73;;;4.90;;
16101;SDS011;56411;52.964;10.540;2023-05-10T00:20:50;11.07;;;5.10;;
16101;SDS011;56411;52.964;10.540;2023-05-10T00:23:17;9.93;;;4.67;;
16101;SDS011;56411;52.964;10.540;2023-05-10T00:25:44;10.07;;;4.77;;
16101;SDS011;56411;52.964;10.540;2023-05-10T00:28:11;11.50;;;4.63;;
16101;SDS011;56411;52.964;10.540;2023-05-10T00:30:38;8.83;;;4.63;;
16101;SDS011;56411;52.964;10.540;2023-05-10T00:33:05;9.20;;;5.00;;
16101;SDS011;56411;52.964;10.540;2023-05-10T00:35:33;10.10;;;4.77;;
16101;SDS011;56411;52.964;10.540;2023-05-10T00:38:01;10.13;;;4.97;;
16101;SDS011;56411;52.964;10.540;2023-05-10T00:40:28;10.47;;;4.93;;
16101;SDS011;56411;52.964;10.540;2023-05-10T00:42:55;10.63;;;5.37;;
16101;SDS011;56411;52.964;10.540;2023-05-10T00:45:23;9.53;;;4.63;;
16101;SDS011;56411;52.964;10.540;2023-05-10T00:47:50;9.97;;;4.80;;
16101;SDS011;56411;52.964;10.540;2023-05-10T00:50:20;9.97;;;4.73;;
16101;SDS011;56411;52.964;10.540;2023-05-10T00:52:47;9.60;;;5.03;;
16101;SDS011;56411;52.964;10.540;2023-05-10T00:55:15;10.03;;;5.10;;
16101;SDS011;56411;52.964;10.540;2023-05-10T00:57:42;10.80;;;5.13;;
16101;SDS011;56411;52.964;10.540;2023-05-10T01:00:11;10.03;;;4.90;;
16101;SDS011;56411;52.964;10.540;2023-05-10T01:02:43;9.73;;;5.13;;
16101;SDS011;56411;52.964;10.540;2023-05-10T01:05:11;8.53;;;4.50;;
16101;SDS011;56411;52.964;10.540;2023-05-10T01:07:38;10.27;;;5.27;;
16101;SDS011;56411;52.964;10.540;2023-05-10T01:10:06;9.03;;;4.73;;
16101;SDS011;56411;52.964;10.540;2023-05-10T01:12:37;9.67;;;5.13;;
16101;SDS011;56411;52.964;10.540;2023-05-10T01:15:06;11.50;;;5.10;;
16101;SDS011;56411;52.964;10.540;2023-05-10T01:17:34;10.97;;;5.23;;
16101;SDS011;56411;52.964;10.540;2023-05-10T01:20:03;8.90;;;4.87;;
16101;SDS011;56411;52.964;10.540;2023-05-10T01:22:39;10.23;;;5.00;;
16101;SDS011;56411;52.964;10.540;2023-05-10T01:25:22;12.17;;;5.27;;
16101;SDS011;56411;52.964;10.540;2023-05-10T01:28:20;11.27;;;5.33;;
16101;SDS011;56411;52.964;10.540;2023-05-10T01:31:06;12.07;;;5.50;;
16101;SDS011;56411;52.964;10.540;2023-05-10T01:33:47;9.80;;;4.97;;
16101;SDS011;56411;52.964;10.540;2023-05-10T01:36:19;12.00;;;5.57;;
16101;SDS011;56411;52.964;10.540;2023-05-10T01:38:53;9.53;;;4.93;;
16101;SDS011;56411;52.964;10.540;2023-05-10T01:41:27;9.33;;;5.10;;
16101;SDS011;56411;52.964;10.540;2023-05-10T01:44:01;11.00;;;5.13;;
16101;SDS011;56411;52.964;10.540;2023-05-10T01:46:33;10.70;;;5.20;;
16101;SDS011;56411;52.964;10.540;2023-05-10T01:49:06;11.77;;;5.80;;
16101;SDS011;56411;52.964;10.540;2023-05-10T01:51:36;10.37;;;5.20;;
16101;SDS011;56411;52.964;10.540;2023-05-10T01:54:07;12.80;;;5.90;;
16101;SDS011;56411;52.964;10.540;2023-05-10T01:56:35;11.30;;;5.80;;
16101;SDS011;56411;52.964;10.540;2023-05-10T01:59:06;11.47;;;5.90;;
16101;SDS011;56411;52.964;10.540;2023-05-10T02:01:37;11.03;;;5.90;;
16101;SDS011;56411;52.964;10.540;2023-05-10T02:04:07;11.13;;;5.43;;
16101;SDS011;56411;52.964;10.540;2023-05-10T02:06:35;9.47;;;5.10;;
16101;SDS011;56411;52.964;10.540;2023-05-10T02:09:04;10.07;;;5.50;;
16101;SDS011;56411;52.964;10.540;2023-05-10T02:11:33;10.47;;;5.47;;
16101;SDS011;56411;52.964;10.540;2023-05-10T02:14:00;10.30;;;5.43;;
16101;SDS011;56411;52.964;10.540;2023-05-10T02:16:29;11.47;;;5.43;;
16101;SDS011;56411;52.964;10.540;2023-05-10T02:18:57;11.87;;;5.60;;
16101;SDS011;56411;52.964;10.540;2023-05-10T02:21:29;10.50;;;5.40;;
16101;SDS011;56411;52.964;10.540;2023-05-10T02:23:56;10.23;;;5.63;;
16101;SDS011;56411;52.964;10.540;2023-05-10T02:26:24;14.03;;;7.60;;
16101;SDS011;56411;52.964;10.540;2023-05-10T02:28:53;11.50;;;6.43;;
16101;SDS011;56411;52.964;10.540;2023-05-10T02:31:22;11.57;;;5.53;;
16101;SDS011;56411;52.964;10.540;2023-05-10T02:33:49;10.87;;;5.97;;
16101;SDS011;56411;52.964;10.540;2023-05-10T02:36:18;13.07;;;6.50;;
16101;SDS011;56411;52.964;10.540;2023-05-10T02:38:48;12.33;;;6.13;;
16101;SDS011;56411;52.964;10.540;2023-05-10T02:41:17;12.83;;;6.10;;
16101;SDS011;56411;52.964;10.540;2023-05-10T02:43:47;11.00;;;5.80;;
16101;SDS011;56411;52.964;10.540;2023-05-10T02:46:17;11.93;;;5.97;;
16101;SDS011;56411;52.964;10.540;2023-05-10T02:48:44;13.80;;;6.20;;
16101;SDS011;56411;52.964;10.540;2023-05-10T02:51:11;10.73;;;6.03;;
16101;SDS011;56411;52.964;10.540;2023-05-10T02:53:43;12.47;;;6.00;;
16101;SDS011;56411;52.964;10.540;2023-05-10T02:56:13;11.67;;;5.93;;
16101;SDS011;56411;52.964;10.540;2023-05-10T02:58:47;14.70;;;7.70;;
16101;SDS011;56411;52.964;10.540;2023-05-10T03:01:14;13.13;;;6.07;;
16101;SDS011;56411;52.964;10.540;2023-05-10T03:03:41;12.80;;;6.50;;
16101;SDS011;56411;52.964;10.540;2023-05-10T03:06:08;10.70;;;5.97;;
16101;SDS011;56411;52.964;10.540;2023-05-10T03:08:35;11.60;;;5.83;;
16101;SDS011;56411;52.964;10.540;2023-05-10T03:11:08;10.50;;;5.90;;
16101;SDS011;56411;52.964;10.540;2023-05-10T03:13:44;9.97;;;5.83;;
16101;SDS011;56411;52.964;10.540;2023-05-10T03:16:16;11.50;;;5.80;;
16101;SDS011;56411;52.964;10.540;2023-05-10T03:18:50;12.20;;;5.87;;
16101;SDS011;56411;52.964;10.540;2023-05-10T03:21:22;10.57;;;5.87;;
16101;SDS011;56411;52.964;10.540;2023-05-10T03:23:57;10.77;;;5.60;;
16101;SDS011;56411;52.964;10.540;2023-05-10T03:26:28;12.27;;;6.07;;
16101;SDS011;56411;52.964;10.540;2023-05-10T03:28:55;12.53;;;5.87;;
16101;SDS011;56411;52.964;10.540;2023-05-10T03:31:24;13.40;;;5.90;;
16101;SDS011;56411;52.964;10.540;2023-05-10T03:33:52;12.37;;;5.90;;
16101;SDS011;56411;52.964;10.540;2023-05-10T03:36:19;12.57;;;5.70;;
16101;SDS011;56411;52.964;10.540;2023-05-10T03:38:46;11.17;;;5.83;;
16101;SDS011;56411;52.964;10.540;2023-05-10T03:41:13;13.00;;;6.00;;
16101;SDS011;56411;52.964;10.540;2023-05-10T03:43:41;10.97;;;5.90;;
16101;SDS011;56411;52.964;10.540;2023-05-10T03:46:08;11.67;;;5.90;;
16101;SDS011;56411;52.964;10.540;2023-05-10T03:48:35;10.60;;;5.70;;
16101;SDS011;56411;52.964;10.540;2023-05-10T03:51:03;11.20;;;5.77;;
16101;SDS011;56411;52.964;10.540;2023-05-10T03:53:30;11.20;;;6.00;;
16101;SDS011;56411;52.964;10.540;2023-05-10T03:55:57;10.17;;;5.77;;
16101;SDS011;56411;52.964;10.540;2023-05-10T03:58:24;10.30;;;5.80;;
16101;SDS011;56411;52.964;10.540;2023-05-10T04:00:52;12.13;;;5.60;;
16101;SDS011;56411;52.964;10.540;2023-05-10T04:03:19;10.50;;;5.63;;
16101;SDS011;56411;52.964;10.540;2023-05-10T04:05:46;11.53;;;5.90;;
16101;SDS011;56411;52.964;10.540;2023-05-10T04:08:13;10.40;;;5.80;;
16101;SDS011;56411;52.964;10.540;2023-05-10T04:10:41;10.50;;;5.43;;
16101;SDS011;56411;52.964;10.540;2023-05-10T04:13:08;9.10;;;5.40;;
16101;SDS011;56411;52.964;10.540;2023-05-10T04:15:36;10.77;;;5.63;;
16101;SDS011;56411;52.964;10.540;2023-05-10T04:18:04;12.60;;;5.83;;
16101;SDS011;56411;52.964;10.540;2023-05-10T04:20:32;10.70;;;6.07;;
16101;SDS011;56411;52.964;10.540;2023-05-10T04:22:59;9.87;;;5.50;;
16101;SDS011;56411;52.964;10.540;2023-05-10T04:25:27;11.47;;;5.80;;
16101;SDS011;56411;52.964;10.540;2023-05-10T04:27:54;12.10;;;6.00;;
16101;SDS011;56411;52.964;10.540;2023-05-10T04:30:21;11.00;;;5.80;;
16101;SDS011;56411;52.964;10.540;2023-05-10T04:32:48;10.43;;;5.63;;
16101;SDS011;56411;52.964;10.540;2023-05-10T04:35:16;11.10;;;6.00;;
16101;SDS011;56411;52.964;10.540;2023-05-10T04:37:43;10.50;;;5.47;;
16101;SDS011;56411;52.964;10.540;2023-05-10T04:40:11;10.10;;;5.43;;
16101;SDS011;56411;52.964;10.540;2023-05-10T04:42:42;10.83;;;5.70;;
16101;SDS011;56411;52.964;10.540;2023-05-10T04:45:10;12.30;;;6.07;;
16101;SDS011;56411;52.964;10.540;2023-05-10T04:47:37;11.13;;;5.90;;
16101;SDS011;56411;52.964;10.540;2023-05-10T04:50:04;9.57;;;5.67;;
16101;SDS011;56411;52.964;10.540;2023-05-10T04:52:34;11.23;;;5.40;;
16101;SDS011;56411;52.964;10.540;2023-05-10T04:55:01;11.73;;;5.60;;
16101;SDS011;56411;52.964;10.540;2023-05-10T04:57:28;11.43;;;5.93;;
16101;SDS011;56411;52.964;10.540;2023-05-10T04:59:55;11.77;;;6.00;;
16101;SDS011;56411;52.964;10.540;2023-05-10T05:02:22;10.83;;;5.70;;
16101;SDS011;56411;52.964;10.540;2023-05-10T05:04:50;11.10;;;5.50;;
16101;SDS011;56411;52.964;10.540;2023-05-10T05:07:17;10.67;;;5.40;;
16101;SDS011;56411;52.964;10.540;2023-05-10T05:09:45;10.77;;;5.60;;
16101;SDS011;56411;52.964;10.540;2023-05-10T05:12:12;11.93;;;5.87;;
16101;SDS011;56411;52.964;10.540;2023-05-10T05:14:40;10.30;;;5.63;;
16101;SDS011;56411;52.964;10.540;2023-05-10T05:17:07;11.80;;;6.07;;
16101;SDS011;56411;52.964;10.540;2023-05-10T05:19:34;11.02;;;5.50;;
16101;SDS011;56411;52.964;10.540;2023-05-10T05:22:03;10.40;;;5.53;;
16101;SDS011;56411;52.964;10.540;2023-05-10T05:24:34;10.63;;;5.33;;
16101;SDS011;56411;52.964;10.540;2023-05-10T05:27:04;10.10;;;5.40;;
16101;SDS011;56411;52.964;10.540;2023-05-10T05:29:32;10.83;;;5.40;;
16101;SDS011;56411;52.964;10.540;2023-05-10T05:31:59;10.67;;;5.00;;
16101;SDS011;56411;52.964;10.540;2023-05-10T05:34:26;9.97;;;5.10;;
16101;SDS011;56411;52.964;10.540;2023-05-10T05:36:53;10.80;;;5.40;;
16101;SDS011;56411;52.964;10.540;2023-05-10T05:39:20;10.40;;;5.65;;
16101;SDS011;56411;52.964;10.540;2023-05-10T05:41:48;10.55;;;4.93;;
16101;SDS011;56411;52.964;10.540;2023-05-10T05:44:16;10.30;;;5.13;;
16101;SDS011;56411;52.964;10.540;2023-05-10T05:46:43;10.38;;;5.70;;
16101;SDS011;56411;52.964;10.540;2023-05-10T05:49:10;9.57;;;5.30;;
16101;SDS011;56411;52.964;10.540;2023-05-10T05:51:37;10.90;;;5.15;;
16101;SDS011;56411;52.964;10.540;2023-05-10T05:54:04;9.73;;;5.28;;
16101;SDS011;56411;52.964;10.540;2023-05-10T05:56:31;12.73;;;5.43;;
16101;SDS011;56411;52.964;10.540;2023-05-10T05:58:58;9.02;;;5.07;;
16101;SDS011;56411;52.964;10.540;2023-05-10T06:01:27;9.70;;;5.32;;
16101;SDS011;56411;52.964;10.540;2023-05-10T06:03:54;9.05;;;5.05;;
16101;SDS011;56411;52.964;10.540;2023-05-10T06:06:21;9.75;;;5.28;;
16101;SDS011;56411;52.964;10.540;2023-05-10T06:08:48;10.13;;;4.93;;
16101;SDS011;56411;52.964;10.540;2023-05-10T06:11:15;9.70;;;5.43;;
16101;SDS011;56411;52.964;10.540;2023-05-10T06:13:42;11.18;;;5.20;;
16101;SDS011;56411;52.964;10.540;2023-05-10T06:16:09;10.27;;;5.47;;
16101;SDS011;56411;52.964;10.540;2023-05-10T06:18:38;10.32;;;5.78;;
16101;SDS011;56411;52.964;10.540;2023-05-10T06:21:05;10.57;;;4.97;;
16101;SDS011;56411;52.964;10.540;2023-05-10T06:23:33;9.25;;;5.13;;
16101;SDS011;56411;52.964;10.540;2023-05-10T06:26:00;10.80;;;4.90;;
16101;SDS011;56411;52.964;10.540;2023-05-10T06:28:28;11.00;;;5.30;;
16101;SDS011;56411;52.964;10.540;2023-05-10T06:30:56;8.65;;;5.00;;
16101;SDS011;56411;52.964;10.540;2023-05-10T06:33:23;9.50;;;5.30;;
16101;SDS011;56411;52.964;10.540;2023-05-10T06:35:51;14.18;;;5.68;;
16101;SDS011;56411;52.964;10.540;2023-05-10T06:38:18;12.32;;;5.72;;
16101;SDS011;56411;52.964;10.540;2023-05-10T06:40:45;10.13;;;5.10;;
16101;SDS011;56411;52.964;10.540;2023-05-10T06:43:12;8.38;;;4.80;;
16101;SDS011;56411;52.964;10.540;2023-05-10T06:45:40;10.95;;;4.95;;
16101;SDS011;56411;52.964;10.540;2023-05-10T06:48:07;11.10;;;5.20;;
16101;SDS011;56411;52.964;10.540;2023-05-10T06:50:34;10.25;;;5.18;;
16101;SDS011;56411;52.964;10.540;2023-05-10T06:53:02;9.73;;;4.95;;
16101;SDS011;56411;52.964;10.540;2023-05-10T06:55:29;9.52;;;5.15;;
16101;SDS011;56411;52.964;10.540;2023-05-10T06:57:56;11.00;;;5.22;;
16101;SDS011;56411;52.964;10.540;2023-05-10T07:00:23;8.57;;;5.07;;
16101;SDS011;56411;52.964;10.540;2023-05-10T07:02:51;9.45;;;5.40;;
16101;SDS011;56411;52.964;10.540;2023-05-10T07:05:18;11.20;;;5.20;;
16101;SDS011;56411;52.964;10.540;2023-05-10T07:07:45;10.00;;;5.00;;
16101;SDS011;56411;52.964;10.540;2023-05-10T07:10:14;11.70;;;5.70;;
16101;SDS011;56411;52.964;10.540;2023-05-10T07:12:41;11.52;;;5.80;;
16101;SDS011;56411;52.964;10.540;2023-05-10T07:15:08;10.20;;;5.70;;
16101;SDS011;56411;52.964;10.540;2023-05-10T07:17:35;9.93;;;5.38;;
16101;SDS011;56411;52.964;10.540;2023-05-10T07:20:03;9.98;;;5.55;;
16101;SDS011;56411;52.964;10.540;2023-05-10T07:22:30;10.98;;;5.88;;
16101;SDS011;56411;52.964;10.540;2023-05-10T07:24:57;10.35;;;5.18;;
16101;SDS011;56411;52.964;10.540;2023-05-10T07:27:25;10.30;;;5.10;;
16101;SDS011;56411;52.964;10.540;2023-05-10T07:29:52;10.55;;;5.07;;
16101;SDS011;56411;52.964;10.540;2023-05-10T07:32:21;9.43;;;5.50;;
16101;SDS011;56411;52.964;10.540;2023-05-10T07:34:48;10.32;;;5.10;;
16101;SDS011;56411;52.964;10.540;2023-05-10T07:37:15;8.70;;;5.03;;
16101;SDS011;56411;52.964;10.540;2023-05-10T07:39:42;10.52;;;5.22;;
16101;SDS011;56411;52.964;10.540;2023-05-10T07:42:09;10.07;;;5.20;;
16101;SDS011;56411;52.964;10.540;2023-05-10T07:44:38;11.60;;;5.85;;
16101;SDS011;56411;52.964;10.540;2023-05-10T07:47:05;8.68;;;4.50;;
16101;SDS011;56411;52.964;10.540;2023-05-10T07:49:32;9.07;;;4.68;;
16101;SDS011;56411;52.964;10.540;2023-05-10T07:51:59;7.90;;;4.40;;
16101;SDS011;56411;52.964;10.540;2023-05-10T07:54:26;12.30;;;5.38;;
16101;SDS011;56411;52.964;10.540;2023-05-10T07:56:53;9.82;;;5.00;;
16101;SDS011;56411;52.964;10.540;2023-05-10T07:59:20;8.95;;;5.07;;
16101;SDS011;56411;52.964;10.540;2023-05-10T08:01:49;10.10;;;5.07;;
16101;SDS011;56411;52.964;10.540;2023-05-10T08:04:16;12.18;;;5.30;;
16101;SDS011;56411;52.964;10.540;2023-05-10T08:06:43;10.90;;;5.10;;
16101;SDS011;56411;52.964;10.540;2023-05-10T08:09:10;10.60;;;5.30;;
16101;SDS011;56411;52.964;10.540;2023-05-10T08:11:37;9.48;;;5.20;;
16101;SDS011;56411;52.964;10.540;2023-05-10T08:14:04;13.02;;;5.13;;
16101;SDS011;56411;52.964;10.540;2023-05-10T08:16:31;12.07;;;5.00;;
16101;SDS011;56411;52.964;10.540;2023-05-10T08:19:00;10.35;;;5.13;;
16101;SDS011;56411;52.964;10.540;2023-05-10T08:21:27;11.50;;;5.07;;
16101;SDS011;56411;52.964;10.540;2023-05-10T08:23:56;8.75;;;4.80;;
16101;SDS011;56411;52.964;10.540;2023-05-10T08:26:23;9.57;;;5.20;;
16101;SDS011;56411;52.964;10.540;2023-05-10T08:28:51;13.48;;;5.65;;
16101;SDS011;56411;52.964;10.540;2023-05-10T08:31:18;11.60;;;5.85;;
16101;SDS011;56411;52.964;10.540;2023-05-10T08:33:45;12.45;;;5.30;;
16101;SDS011;56411;52.964;10.540;2023-05-10T08:36:13;10.18;;;5.32;;
16101;SDS011;56411;52.964;10.540;2023-05-10T08:38:44;9.48;;;5.00;;
16101;SDS011;56411;52.964;10.540;2023-05-10T08:41:11;9.90;;;5.32;;
16101;SDS011;56411;52.964;10.540;2023-05-10T08:43:39;12.18;;;5.50;;
16101;SDS011;56411;52.964;10.540;2023-05-10T08:46:13;9.43;;;5.25;;
16101;SDS011;56411;52.964;10.540;2023-05-10T08:48:45;12.68;;;5.40;;
16101;SDS011;56411;52.964;10.540;2023-05-10T08:51:15;8.18;;;5.05;;
16101;SDS011;56411;52.964;10.540;2023-05-10T08:53:46;10.13;;;5.40;;
16101;SDS011;56411;52.964;10.540;2023-05-10T08:56:13;10.73;;;5.47;;
16101;SDS011;56411;52.964;10.540;2023-05-10T08:58:43;11.05;;;5.35;;
16101;SDS011;56411;52.964;10.540;2023-05-10T09:01:10;9.82;;;5.05;;
16101;SDS011;56411;52.964;10.540;2023-05-10T09:03:38;10.50;;;5.43;;
16101;SDS011;56411;52.964;10.540;2023-05-10T09:06:06;10.10;;;5.13;;
16101;SDS011;56411;52.964;10.540;2023-05-10T09:08:37;9.38;;;5.18;;
16101;SDS011;56411;52.964;10.540;2023-05-10T09:11:04;10.02;;;5.15;;
16101;SDS011;56411;52.964;10.540;2023-05-10T09:13:32;9.77;;;5.65;;
16101;SDS011;56411;52.964;10.540;2023-05-10T09:15:59;12.27;;;6.20;;
16101;SDS011;56411;52.964;10.540;2023-05-10T09:18:27;10.30;;;5.72;;
16101;SDS011;56411;52.964;10.540;2023-05-10T09:20:54;10.02;;;5.55;;
16101;SDS011;56411;52.964;10.540;2023-05-10T09:23:21;10.68;;;6.18;;
16101;SDS011;56411;52.964;10.540;2023-05-10T09:26:02;10.63;;;5.90;;
16101;SDS011;56411;52.964;10.540;2023-05-10T09:28:31;10.02;;;5.50;;
16101;SDS011;56411;52.964;10.540;2023-05-10T09:30:59;10.68;;;5.72;;
16101;SDS011;56411;52.964;10.540;2023-05-10T09:33:26;10.57;;;5.68;;
16101;SDS011;56411;52.964;10.540;2023-05-10T09:35:53;10.68;;;6.00;;
16101;SDS011;56411;52.964;10.540;2023-05-10T09:38:20;10.30;;;5.63;;
16101;SDS011;56411;52.964;10.540;2023-05-10T09:40:50;10.55;;;5.97;;
16101;SDS011;56411;52.964;10.540;2023-05-10T09:43:21;10.20;;;6.10;;
16101;SDS011;56411;52.964;10.540;2023-05-10T09:45:48;11.43;;;6.10;;
16101;SDS011;56411;52.964;10.540;2023-05-10T09:48:16;13.05;;;6.95;;
16101;SDS011;56411;52.964;10.540;2023-05-10T09:50:42;12.10;;;6.70;;
16101;SDS011;56411;52.964;10.540;2023-05-10T09:53:09;11.23;;;7.03;;
16101;SDS011;56411;52.964;10.540;2023-05-10T09:55:42;12.50;;;7.82;;
16101;SDS011;56411;52.964;10.540;2023-05-10T09:58:11;12.40;;;8.15;;
16101;SDS011;56411;52.964;10.540;2023-05-10T10:00:43;14.18;;;8.55;;
16101;SDS011;56411;52.964;10.540;2023-05-10T10:03:13;13.88;;;9.02;;
16101;SDS011;56411;52.964;10.540;2023-05-10T10:05:41;13.68;;;8.88;;
16101;SDS011;56411;52.964;10.540;2023-05-10T10:08:08;14.27;;;8.88;;
16101;SDS011;56411;52.964;10.540;2023-05-10T10:10:36;16.45;;;9.40;;
16101;SDS011;56411;52.964;10.540;2023-05-10T10:13:05;14.90;;;9.73;;
16101;SDS011;56411;52.964;10.540;2023-05-10T10:15:32;14.35;;;10.15;;
16101;SDS011;56411;52.964;10.540;2023-05-10T10:18:01;14.68;;;10.00;;
16101;SDS011;56411;52.964;10.540;2023-05-10T10:20:29;14.93;;;10.05;;
16101;SDS011;56411;52.964;10.540;2023-05-10T10:22:57;15.57;;;10.05;;
16101;SDS011;56411;52.964;10.540;2023-05-10T10:25:24;15.27;;;10.50;;
16101;SDS011;56411;52.964;10.540;2023-05-10T10:27:57;14.75;;;10.25;;
16101;SDS011;56411;52.964;10.540;2023-05-10T10:30:35;16.40;;;11.07;;
16101;SDS011;56411;52.964;10.540;2023-05-10T10:33:17;17.52;;;11.40;;
16101;SDS011;56411;52.964;10.540;2023-05-10T10:36:05;17.50;;;11.00;;
16101;SDS011;56411;52.964;10.540;2023-05-10T10:38:36;18.10;;;10.57;;
16101;SDS011;56411;52.964;10.540;2023-05-10T10:41:28;16.35;;;10.88;;
16101;SDS011;56411;52.964;10.540;2023-05-10T10:47:00;16.73;;;10.50;;
16101;SDS011;56411;52.964;10.540;2023-05-10T10:49:37;15.50;;;10.10;;
16101;SDS011;56411;52.964;10.540;2023-05-10T10:52:14;15.43;;;9.85;;
16101;SDS011;56411;52.964;10.540;2023-05-10T10:54:51;15.88;;;10.30;;
16101;SDS011;56411;52.964;10.540;2023-05-10T10:57:20;16.80;;;10.55;;
16101;SDS011;56411;52.964;10.540;2023-05-10T10:59:47;14.07;;;9.73;;
16101;SDS011;56411;52.964;10.540;2023-05-10T11:08:12;16.00;;;10.00;;
16101;SDS011;56411;52.964;10.540;2023-05-10T11:10:49;14.77;;;10.05;;
16101;SDS011;56411;52.964;10.540;2023-05-10T11:13:26;14.07;;;9.70;;
16101;SDS011;56411;52.964;10.540;2023-05-10T11:15:55;13.63;;;9.25;;
16101;SDS011;56411;52.964;10.540;2023-05-10T11:18:24;14.25;;;9.60;;
16101;SDS011;56411;52.964;10.540;2023-05-10T11:20:54;14.13;;;9.82;;
16101;SDS011;56411;52.964;10.540;2023-05-10T11:23:28;14.50;;;8.98;;
16101;SDS011;56411;52.964;10.540;2023-05-10T11:25:57;13.95;;;9.73;;
16101;SDS011;56411;52.964;10.540;2023-05-10T11:28:24;14.40;;;9.20;;
16101;SDS011;56411;52.964;10.540;2023-05-10T11:30:53;14.82;;;9.68;;
16101;SDS011;56411;52.964;10.540;2023-05-10T11:33:21;15.15;;;9.95;;
16101;SDS011;56411;52.964;10.540;2023-05-10T11:35:48;14.00;;;9.38;;
16101;SDS011;56411;52.964;10.540;2023-05-10T11:38:15;14.80;;;9.52;;
16101;SDS011;56411;52.964;10.540;2023-05-10T11:40:43;14.95;;;9.68;;
16101;SDS011;56411;52.964;10.540;2023-05-10T11:43:10;14.63;;;9.60;;
16101;SDS011;56411;52.964;10.540;2023-05-10T11:45:37;14.60;;;10.05;;
16101;SDS011;56411;52.964;10.540;2023-05-10T11:48:06;14.30;;;9.38;;
16101;SDS011;56411;52.964;10.540;2023-05-10T11:50:33;15.60;;;9.15;;
16101;SDS011;56411;52.964;10.540;2023-05-10T11:53:00;13.38;;;8.40;;
16101;SDS011;56411;52.964;10.540;2023-05-10T11:55:27;12.35;;;8.07;;
16101;SDS011;56411;52.964;10.540;2023-05-10T11:58:00;12.75;;;8.23;;
16101;SDS011;56411;52.964;10.540;2023-05-10T12:00:28;12.45;;;7.68;;
16101;SDS011;56411;52.964;10.540;2023-05-10T12:02:56;11.60;;;7.60;;
16101;SDS011;56411;52.964;10.540;2023-05-10T12:05:23;11.57;;;7.32;;
16101;SDS011;56411;52.964;10.540;2023-05-10T12:07:51;10.98;;;7.22;;
16101;SDS011;56411;52.964;10.540;2023-05-10T12:10:24;11.52;;;7.32;;
16101;SDS011;56411;52.964;10.540;2023-05-10T12:12:52;11.77;;;7.35;;
16101;SDS011;56411;52.964;10.540;2023-05-10T12:15:22;11.38;;;7.25;;
16101;SDS011;56411;52.964;10.540;2023-05-10T12:17:49;12.07;;;7.00;;
16101;SDS011;56411;52.964;10.540;2023-05-10T12:20:17;11.27;;;7.03;;
16101;SDS011;56411;52.964;10.540;2023-05-10T12:22:46;11.00;;;6.72;;
16101;SDS011;56411;52.964;10.540;2023-05-10T12:25:15;10.68;;;6.60;;
16101;SDS011;56411;52.964;10.540;2023-05-10T12:27:47;11.43;;;6.25;;
16101;SDS011;56411;52.964;10.540;2023-05-10T12:30:22;10.93;;;6.40;;
16101;SDS011;56411;52.964;10.540;2023-05-10T12:32:50;11.20;;;6.63;;
16101;SDS011;56411;52.964;10.540;2023-05-10T12:35:18;9.85;;;5.90;;
16101;SDS011;56411;52.964;10.540;2023-05-10T12:37:47;8.48;;;4.75;;
16101;SDS011;56411;52.964;10.540;2023-05-10T12:40:14;7.35;;;4.40;;
16101;SDS011;56411;52.964;10.540;2023-05-10T12:42:41;8.85;;;4.95;;
16101;SDS011;56411;52.964;10.540;2023-05-10T12:45:10;7.90;;;4.85;;
16101;SDS011;56411;52.964;10.540;2023-05-10T12:47:39;8.18;;;4.85;;
16101;SDS011;56411;52.964;10.540;2023-05-10T12:50:06;8.30;;;4.75;;
16101;SDS011;56411;52.964;10.540;2023-05-10T12:52:33;9.77;;;5.43;;
16101;SDS011;56411;52.964;10.540;2023-05-10T12:55:01;8.88;;;5.38;;
16101;SDS011;56411;52.964;10.540;2023-05-10T12:57:28;9.90;;;5.72;;
16101;SDS011;56411;52.964;10.540;2023-05-10T12:59:55;9.60;;;5.53;;
16101;SDS011;56411;52.964;10.540;2023-05-10T13:02:23;8.52;;;5.28;;
16101;SDS011;56411;52.964;10.540;2023-05-10T13:04:51;9.07;;;5.22;;
16101;SDS011;56411;52.964;10.540;2023-05-10T13:07:19;9.77;;;5.30;;
16101;SDS011;56411;52.964;10.540;2023-05-10T13:09:46;8.65;;;5.20;;
16101;SDS011;56411;52.964;10.540;2023-05-10T13:12:13;9.02;;;5.45;;
16101;SDS011;56411;52.964;10.540;2023-05-10T13:14:40;9.10;;;5.40;;
16101;SDS011;56411;52.964;10.540;2023-05-10T13:17:07;9.35;;;5.13;;
16101;SDS011;56411;52.964;10.540;2023-05-10T13:19:34;8.50;;;5.20;;
16101;SDS011;56411;52.964;10.540;2023-05-10T13:22:03;8.45;;;4.50;;
16101;SDS011;56411;52.964;10.540;2023-05-10T13:24:30;8.40;;;4.68;;
16101;SDS011;56411;52.964;10.540;2023-05-10T13:26:57;9.10;;;5.00;;
16101;SDS011;56411;52.964;10.540;2023-05-10T13:29:25;7.72;;;4.65;;
16101;SDS011;56411;52.964;10.540;2023-05-10T13:31:52;7.88;;;4.47;;
16101;SDS011;56411;52.964;10.540;2023-05-10T13:34:19;7.55;;;4.65;;
16101;SDS011;56411;52.964;10.540;2023-05-10T13:36:46;8.02;;;4.60;;
16101;SDS011;56411;52.964;10.540;2023-05-10T13:39:15;9.95;;;4.78;;
16101;SDS011;56411;52.964;10.540;2023-05-10T13:41:42;10.82;;;4.90;;
16101;SDS011;56411;52.964;10.540;2023-05-10T13:44:11;10.43;;;5.30;;
16101;SDS011;56411;52.964;10.540;2023-05-10T13:46:39;8.95;;;5.30;;
16101;SDS011;56411;52.964;10.540;2023-05-10T13:49:08;9.00;;;5.47;;
16101;SDS011;56411;52.964;10.540;2023-05-10T13:51:35;9.38;;;5.80;;
16101;SDS011;56411;52.964;10.540;2023-05-10T13:54:02;7.65;;;4.78;;
16101;SDS011;56411;52.964;10.540;2023-05-10T13:58:59;8.80;;;4.68;;
16101;SDS011;56411;52.964;10.540;2023-05-10T14:01:27;8.77;;;4.88;;
16101;SDS011;56411;52.964;10.540;2023-05-10T14:03:54;7.15;;;4.22;;
16101;SDS011;56411;52.964;10.540;2023-05-10T14:06:21;6.38;;;4.13;;
16101;SDS011;56411;52.964;10.540;2023-05-10T14:08:48;6.70;;;3.90;;
16101;SDS011;56411;52.964;10.540;2023-05-10T14:11:15;7.25;;;4.15;;
16101;SDS011;56411;52.964;10.540;2023-05-10T14:13:43;11.18;;;6.20;;
16101;SDS011;56411;52.964;10.540;2023-05-10T14:16:11;5.88;;;3.80;;
16101;SDS011;56411;52.964;10.540;2023-05-10T14:18:39;4.47;;;3.00;;
16101;SDS011;56411;52.964;10.540;2023-05-10T14:21:06;4.80;;;3.10;;
16101;SDS011;56411;52.964;10.540;2023-05-10T14:23:33;6.28;;;3.47;;
16101;SDS011;56411;52.964;10.540;2023-05-10T14:26:00;5.70;;;3.33;;
16101;SDS011;56411;52.964;10.540;2023-05-10T14:28:28;4.10;;;2.80;;
16101;SDS011;56411;52.964;10.540;2023-05-10T14:30:56;3.90;;;2.80;;
16101;SDS011;56411;52.964;10.540;2023-05-10T14:33:24;5.18;;;3.30;;
16101;SDS011;56411;52.964;10.540;2023-05-10T14:35:51;4.97;;;3.20;;
16101;SDS011;56411;52.964;10.540;2023-05-10T14:38:18;3.72;;;2.80;;
16101;SDS011;56411;52.964;10.540;2023-05-10T14:40:45;5.35;;;3.20;;
16101;SDS011;56411;52.964;10.540;2023-05-10T14:43:12;4.78;;;3.08;;
16101;SDS011;56411;52.964;10.540;2023-05-10T14:45:39;5.50;;;3.28;;